sensor_id;sensor_type;location;lat;lon;timestamp;pressure;altitude;pressure_sealevel;temperature;humidity
47054;BME280;32811;52.382;5.270;2023-05-27T00:01:08;103135.41;;;8.24;100.00
47054;BME280;32811;52.382;5.270;2023-05-27T00:03:35;103117.00;;;8.17;100.00
47054;BME280;32811;52.382;5.270;2023-05-27T00:06:02;103114.19;;;8.12;100.00
47054;BME280;32811;52.382;5.270;2023-05-27T00:08:29;103126.50;;;8.18;100.00
47054;BME280;32811;52.382;5.270;2023-05-27T00:10:55;103128.91;;;8.15;100.00
47054;BME280;32811;52.382;5.270;2023-05-27T00:13:22;103136.56;;;8.13;100.00
47054;BME280;32811;52.382;5.270;2023-05-27T00:15:49;103127.16;;;8.14;100.00
47054;BME280;32811;52.382;5.270;2023-05-27T00:18:16;103120.16;;;8.11;100.00
47054;BME280;32811;52.382;5.270;2023-05-27T00:20:42;103121.03;;;8.11;100.00
47054;BME280;32811;52.382;5.270;2023-05-27T00:23:09;103109.00;;;8.10;100.00
47054;BME280;32811;52.382;5.270;2023-05-27T00:25:36;103111.72;;;8.14;100.00
47054;BME280;32811;52.382;5.270;2023-05-27T00:28:03;103117.91;;;8.17;100.00
47054;BME280;32811;52.382;5.270;2023-05-27T00:30:29;103111.72;;;8.14;100.00
47054;BME280;32811;52.382;5.270;2023-05-27T00:32:57;103092.28;;;8.02;100.00
47054;BME280;32811;52.382;5.270;2023-05-27T00:35:24;103105.38;;;8.07;100.00
47054;BME280;32811;52.382;5.270;2023-05-27T00:37:51;103103.66;;;8.07;100.00
47054;BME280;32811;52.382;5.270;2023-05-27T00:40:21;103115.56;;;8.05;100.00
47054;BME280;32811;52.382;5.270;2023-05-27T00:42:48;103110.44;;;8.05;100.00
47054;BME280;32811;52.382;5.270;2023-05-27T00:45:15;103107.63;;;8.01;100.00
47054;BME280;32811;52.382;5.270;2023-05-27T00:47:42;103104.50;;;7.90;100.00
47054;BME280;32811;52.382;5.270;2023-05-27T00:50:09;103109.81;;;7.93;100.00
47054;BME280;32811;52.382;5.270;2023-05-27T00:52:35;103100.56;;;7.80;100.00
47054;BME280;32811;52.382;5.270;2023-05-27T00:55:02;103114.38;;;7.82;100.00
47054;BME280;32811;52.382;5.270;2023-05-27T00:57:31;103117.06;;;7.84;100.00
47054;BME280;32811;52.382;5.270;2023-05-27T00:59:58;103116.88;;;7.81;100.00
47054;BME280;32811;52.382;5.270;2023-05-27T01:02:24;103106.03;;;7.70;100.00
47054;BME280;32811;52.382;5.270;2023-05-27T01:04:52;103104.34;;;7.71;100.00
47054;BME280;32811;52.382;5.270;2023-05-27T01:07:22;103115.91;;;7.79;100.00
47054;BME280;32811;52.382;5.270;2023-05-27T01:12:59;103114.25;;;7.79;100.00
47054;BME280;32811;52.382;5.270;2023-05-27T01:15:27;103107.91;;;7.73;100.00
47054;BME280;32811;52.382;5.270;2023-05-27T01:17:56;103097.53;;;7.71;100.00
47054;BME280;32811;52.382;5.270;2023-05-27T01:20:23;103097.19;;;7.65;100.00
47054;BME280;32811;52.382;5.270;2023-05-27T01:22:50;103103.38;;;7.68;100.00
47054;BME280;32811;52.382;5.270;2023-05-27T01:25:19;103110.13;;;7.66;100.00
47054;BME280;32811;52.382;5.270;2023-05-27T01:27:48;103097.75;;;7.59;100.00
47054;BME280;32811;52.382;5.270;2023-05-27T01:30:15;103091.47;;;7.54;100.00
47054;BME280;32811;52.382;5.270;2023-05-27T01:38:07;103109.47;;;7.54;100.00
47054;BME280;32811;52.382;5.270;2023-05-27T01:40:36;103091.00;;;7.45;100.00
47054;BME280;32811;52.382;5.270;2023-05-27T01:43:05;103101.28;;;7.45;100.00
47054;BME280;32811;52.382;5.270;2023-05-27T01:45:33;103101.13;;;7.42;100.00
47054;BME280;32811;52.382;5.270;2023-05-27T01:48:00;103102.56;;;7.37;100.00
47054;BME280;32811;52.382;5.270;2023-05-27T01:50:27;103096.47;;;7.35;100.00
47054;BME280;32811;52.382;5.270;2023-05-27T01:52:57;103092.00;;;7.32;100.00
47054;BME280;32811;52.382;5.270;2023-05-27T01:55:24;103099.09;;;7.36;100.00
47054;BME280;32811;52.382;5.270;2023-05-27T01:57:50;103099.03;;;7.35;100.00
47054;BME280;32811;52.382;5.270;2023-05-27T02:00:17;103088.41;;;7.28;100.00
47054;BME280;32811;52.382;5.270;2023-05-27T02:02:44;103097.88;;;7.30;100.00
47054;BME280;32811;52.382;5.270;2023-05-27T02:05:11;103096.91;;;7.27;100.00
47054;BME280;32811;52.382;5.270;2023-05-27T02:10:57;103096.59;;;7.21;100.00
47054;BME280;32811;52.382;5.270;2023-05-27T02:13:24;103089.31;;;7.14;100.00
47054;BME280;32811;52.382;5.270;2023-05-27T02:15:51;103089.31;;;7.14;100.00
47054;BME280;32811;52.382;5.270;2023-05-27T02:18:18;103081.38;;;7.10;100.00
47054;BME280;32811;52.382;5.270;2023-05-27T02:20:47;103093.34;;;7.09;100.00
47054;BME280;32811;52.382;5.270;2023-05-27T02:23:13;103091.66;;;7.10;100.00
47054;BME280;32811;52.382;5.270;2023-05-27T02:25:40;103098.22;;;7.04;100.00
47054;BME280;32811;52.382;5.270;2023-05-27T02:28:07;103097.16;;;7.01;100.00
47054;BME280;32811;52.382;5.270;2023-05-27T02:30:33;103093.47;;;6.96;100.00
47054;BME280;32811;52.382;5.270;2023-05-27T02:33:00;103099.31;;;6.93;100.00
47054;BME280;32811;52.382;5.270;2023-05-27T02:35:27;103095.69;;;6.90;100.00
47054;BME280;32811;52.382;5.270;2023-05-27T02:37:53;103086.06;;;6.85;100.00
47054;BME280;32811;52.382;5.270;2023-05-27T02:40:27;103097.13;;;6.84;100.00
47054;BME280;32811;52.382;5.270;2023-05-27T02:42:57;103090.03;;;6.80;100.00
47054;BME280;32811;52.382;5.270;2023-05-27T02:45:24;103093.41;;;6.79;100.00
47054;BME280;32811;52.382;5.270;2023-05-27T02:47:50;103092.28;;;6.74;100.00
47054;BME280;32811;52.382;5.270;2023-05-27T02:50:17;103085.19;;;6.70;100.00
47054;BME280;32811;52.382;5.270;2023-05-27T02:52:44;103084.03;;;6.65;100.00
47054;BME280;32811;52.382;5.270;2023-05-27T02:55:10;103093.53;;;6.66;100.00
47054;BME280;32811;52.382;5.270;2023-05-27T02:57:37;103091.72;;;6.65;100.00
47054;BME280;32811;52.382;5.270;2023-05-27T03:00:04;103086.53;;;6.63;100.00
47054;BME280;32811;52.382;5.270;2023-05-27T03:02:31;103082.81;;;6.58;100.00
47054;BME280;32811;52.382;5.270;2023-05-27T03:04:58;103080.22;;;6.58;100.00
47054;BME280;32811;52.382;5.270;2023-05-27T03:07:27;103079.72;;;6.49;100.00
47054;BME280;32811;52.382;5.270;2023-05-27T03:09:57;103079.91;;;6.52;100.00
47054;BME280;32811;52.382;5.270;2023-05-27T03:12:24;103093.31;;;6.63;100.00
47054;BME280;32811;52.382;5.270;2023-05-27T03:14:51;103089.16;;;6.65;100.00
47054;BME280;32811;52.382;5.270;2023-05-27T03:17:19;103088.28;;;6.64;100.00
47054;BME280;32811;52.382;5.270;2023-05-27T03:19:47;103091.13;;;6.69;100.00
47054;BME280;32811;52.382;5.270;2023-05-27T03:22:14;103098.66;;;6.66;100.00
47054;BME280;32811;52.382;5.270;2023-05-27T03:24:41;103096.00;;;6.64;100.00
47054;BME280;32811;52.382;5.270;2023-05-27T03:27:08;103097.41;;;6.59;100.00
47054;BME280;32811;52.382;5.270;2023-05-27T03:29:34;103085.09;;;6.54;100.00
47054;BME280;32811;52.382;5.270;2023-05-27T03:32:01;103099.63;;;6.53;100.00
47054;BME280;32811;52.382;5.270;2023-05-27T03:34:28;103101.41;;;6.54;100.00
47054;BME280;32811;52.382;5.270;2023-05-27T03:36:55;103097.06;;;6.53;100.00
47054;BME280;32811;52.382;5.270;2023-05-27T03:39:21;103103.06;;;6.54;100.00
47054;BME280;32811;52.382;5.270;2023-05-27T03:41:48;103085.56;;;6.47;100.00
47054;BME280;32811;52.382;5.270;2023-05-27T03:44:14;103086.44;;;6.47;100.00
47054;BME280;32811;52.382;5.270;2023-05-27T03:46:41;103078.84;;;6.49;100.00
47054;BME280;32811;52.382;5.270;2023-05-27T03:49:08;103085.19;;;6.55;100.00
47054;BME280;32811;52.382;5.270;2023-05-27T03:51:35;103072.84;;;6.48;100.00
47054;BME280;32811;52.382;5.270;2023-05-27T03:54:02;103074.69;;;6.51;100.00
47054;BME280;32811;52.382;5.270;2023-05-27T03:56:28;103082.81;;;6.58;100.00
47054;BME280;32811;52.382;5.270;2023-05-27T03:58:55;103079.63;;;6.62;100.00
47054;BME280;32811;52.382;5.270;2023-05-27T04:01:22;103070.22;;;6.63;100.00
47054;BME280;32811;52.382;5.270;2023-05-27T04:03:49;103073.78;;;6.65;100.00
47054;BME280;32811;52.382;5.270;2023-05-27T04:06:16;103079.88;;;6.67;100.00
47054;BME280;32811;52.382;5.270;2023-05-27T04:08:43;103068.03;;;6.69;100.00
47054;BME280;32811;52.382;5.270;2023-05-27T04:11:11;103066.78;;;6.77;100.00
47054;BME280;32811;52.382;5.270;2023-05-27T04:13:39;103071.44;;;6.84;100.00
47054;BME280;32811;52.382;5.270;2023-05-27T04:16:06;103062.41;;;6.91;100.00
47054;BME280;32811;52.382;5.270;2023-05-27T04:18:34;103067.97;;;6.99;100.00
47054;BME280;32811;52.382;5.270;2023-05-27T04:21:02;103062.13;;;7.01;100.00
47054;BME280;32811;52.382;5.270;2023-05-27T04:23:28;103066.78;;;7.09;100.00
47054;BME280;32811;52.382;5.270;2023-05-27T04:25:55;103067.63;;;7.24;100.00
47054;BME280;32811;52.382;5.270;2023-05-27T04:28:22;103060.16;;;7.28;100.00
47054;BME280;32811;52.382;5.270;2023-05-27T04:30:49;103060.25;;;7.30;100.00
47054;BME280;32811;52.382;5.270;2023-05-27T04:33:16;103061.13;;;7.31;100.00
47054;BME280;32811;52.382;5.270;2023-05-27T04:35:43;103064.66;;;7.33;100.00
47054;BME280;32811;52.382;5.270;2023-05-27T04:38:11;103060.50;;;7.35;100.00
47054;BME280;32811;52.382;5.270;2023-05-27T04:40:43;103066.66;;;7.38;100.00
47054;BME280;32811;52.382;5.270;2023-05-27T04:43:12;103063.31;;;7.39;100.00
47054;BME280;32811;52.382;5.270;2023-05-27T04:45:41;103063.59;;;7.45;100.00
47054;BME280;32811;52.382;5.270;2023-05-27T04:48:10;103066.41;;;7.50;100.00
47054;BME280;32811;52.382;5.270;2023-05-27T04:50:37;103062.56;;;7.58;100.00
47054;BME280;32811;52.382;5.270;2023-05-27T04:53:03;103068.28;;;7.69;100.00
47054;BME280;32811;52.382;5.270;2023-05-27T04:55:33;103066.09;;;7.77;100.00
47054;BME280;32811;52.382;5.270;2023-05-27T04:58:00;103070.38;;;7.93;100.00
47054;BME280;32811;52.382;5.270;2023-05-27T05:00:30;103069.13;;;8.02;100.00
47054;BME280;32811;52.382;5.270;2023-05-27T05:03:05;103070.06;;;8.21;100.00
47054;BME280;32811;52.382;5.270;2023-05-27T05:05:34;103063.97;;;8.37;100.00
47054;BME280;32811;52.382;5.270;2023-05-27T05:08:01;103057.22;;;8.55;100.00
47054;BME280;32811;52.382;5.270;2023-05-27T05:10:29;103048.56;;;8.72;100.00
47054;BME280;32811;52.382;5.270;2023-05-27T05:12:55;103045.16;;;9.09;100.00
47054;BME280;32811;52.382;5.270;2023-05-27T05:15:23;103051.00;;;9.44;100.00
47054;BME280;32811;52.382;5.270;2023-05-27T05:17:49;103040.41;;;9.77;100.00
47054;BME280;32811;52.382;5.270;2023-05-27T05:20:16;103035.19;;;10.16;100.00
47054;BME280;32811;52.382;5.270;2023-05-27T05:22:43;103036.25;;;10.63;100.00
47054;BME280;32811;52.382;5.270;2023-05-27T05:25:10;103036.34;;;11.10;100.00
47054;BME280;32811;52.382;5.270;2023-05-27T05:27:37;103034.72;;;11.13;100.00
47054;BME280;32811;52.382;5.270;2023-05-27T05:30:04;103031.56;;;11.45;100.00
47054;BME280;32811;52.382;5.270;2023-05-27T05:32:31;103033.19;;;11.42;100.00
47054;BME280;32811;52.382;5.270;2023-05-27T05:34:58;103027.22;;;11.43;100.00
47054;BME280;32811;52.382;5.270;2023-05-27T05:37:25;103023.53;;;11.61;100.00
47054;BME280;32811;52.382;5.270;2023-05-27T05:39:54;103024.25;;;12.07;100.00
47054;BME280;32811;52.382;5.270;2023-05-27T05:42:22;103019.88;;;12.31;100.00
47054;BME280;32811;52.382;5.270;2023-05-27T05:44:53;103016.47;;;12.59;100.00
47054;BME280;32811;52.382;5.270;2023-05-27T05:47:20;103013.88;;;12.59;100.00
47054;BME280;32811;52.382;5.270;2023-05-27T05:49:46;103012.44;;;12.99;100.00
47054;BME280;32811;52.382;5.270;2023-05-27T05:52:13;103010.63;;;12.95;100.00
47054;BME280;32811;52.382;5.270;2023-05-27T05:54:40;103001.72;;;13.16;100.00
47054;BME280;32811;52.382;5.270;2023-05-27T05:57:07;102998.31;;;13.18;100.00
47054;BME280;32811;52.382;5.270;2023-05-27T05:59:33;103008.63;;;13.15;100.00
47054;BME280;32811;52.382;5.270;2023-05-27T06:02:00;102997.00;;;13.33;100.00
47054;BME280;32811;52.382;5.270;2023-05-27T06:04:26;103003.66;;;13.53;100.00
47054;BME280;32811;52.382;5.270;2023-05-27T06:06:53;102999.47;;;13.28;100.00
47054;BME280;32811;52.382;5.270;2023-05-27T06:09:23;103005.91;;;13.11;100.00
47054;BME280;32811;52.382;5.270;2023-05-27T06:11:51;102989.88;;;13.25;100.00
47054;BME280;32811;52.382;5.270;2023-05-27T06:14:18;102994.09;;;13.52;100.00
47054;BME280;32811;52.382;5.270;2023-05-27T06:16:45;102996.91;;;13.60;100.00
47054;BME280;32811;52.382;5.270;2023-05-27T06:19:12;102986.56;;;13.96;100.00
47054;BME280;32811;52.382;5.270;2023-05-27T06:21:39;102977.22;;;14.03;100.00
47054;BME280;32811;52.382;5.270;2023-05-27T06:24:06;102984.69;;;13.90;100.00
47054;BME280;32811;52.382;5.270;2023-05-27T06:26:33;102988.72;;;13.78;100.00
47054;BME280;32811;52.382;5.270;2023-05-27T06:29:00;102975.56;;;14.06;100.00
47054;BME280;32811;52.382;5.270;2023-05-27T06:31:26;102983.94;;;13.61;100.00
47054;BME280;32811;52.382;5.270;2023-05-27T06:33:53;102973.34;;;14.22;100.00
47054;BME280;32811;52.382;5.270;2023-05-27T06:36:20;102972.88;;;14.40;100.00
47054;BME280;32811;52.382;5.270;2023-05-27T06:38:47;102977.28;;;14.80;100.00
47054;BME280;32811;52.382;5.270;2023-05-27T06:41:14;102972.91;;;15.22;100.00
47054;BME280;32811;52.382;5.270;2023-05-27T06:43:42;102970.03;;;15.08;100.00
47054;BME280;32811;52.382;5.270;2023-05-27T06:46:08;102974.38;;;14.66;100.00
47054;BME280;32811;52.382;5.270;2023-05-27T06:48:35;102976.25;;;13.99;100.00
47054;BME280;32811;52.382;5.270;2023-05-27T06:51:02;102972.34;;;13.80;100.00
47054;BME280;32811;52.382;5.270;2023-05-27T06:53:29;102968.25;;;13.90;100.00
47054;BME280;32811;52.382;5.270;2023-05-27T06:55:55;102965.91;;;14.01;100.00
47054;BME280;32811;52.382;5.270;2023-05-27T06:58:22;102970.94;;;14.31;100.00
47054;BME280;32811;52.382;5.270;2023-05-27T07:00:49;102964.13;;;13.98;100.00
47054;BME280;32811;52.382;5.270;2023-05-27T07:03:16;102960.06;;;13.40;100.00
47054;BME280;32811;52.382;5.270;2023-05-27T07:05:43;102975.94;;;12.92;100.00
47054;BME280;32811;52.382;5.270;2023-05-27T07:08:10;102983.03;;;12.40;100.00
47054;BME280;32811;52.382;5.270;2023-05-27T07:10:36;102978.09;;;12.20;100.00
47054;BME280;32811;52.382;5.270;2023-05-27T07:13:03;102971.19;;;12.21;100.00
47054;BME280;32811;52.382;5.270;2023-05-27T07:15:29;102960.88;;;12.50;100.00
47054;BME280;32811;52.382;5.270;2023-05-27T07:17:57;102961.72;;;12.49;100.00
47054;BME280;32811;52.382;5.270;2023-05-27T07:20:24;102968.44;;;12.42;100.00
47054;BME280;32811;52.382;5.270;2023-05-27T07:22:51;102953.97;;;12.79;100.00
47054;BME280;32811;52.382;5.270;2023-05-27T07:25:18;102947.50;;;13.25;100.00
47054;BME280;32811;52.382;5.270;2023-05-27T07:27:44;102943.50;;;14.04;100.00
47054;BME280;32811;52.382;5.270;2023-05-27T07:30:11;102941.78;;;14.82;100.00
47054;BME280;32811;52.382;5.270;2023-05-27T07:32:38;102931.78;;;15.02;100.00
47054;BME280;32811;52.382;5.270;2023-05-27T07:35:05;102934.97;;;15.33;100.00
47054;BME280;32811;52.382;5.270;2023-05-27T07:37:32;102935.28;;;15.51;100.00
47054;BME280;32811;52.382;5.270;2023-05-27T07:39:59;102936.81;;;15.40;100.00
47054;BME280;32811;52.382;5.270;2023-05-27T07:42:25;102931.56;;;15.87;100.00
47054;BME280;32811;52.382;5.270;2023-05-27T07:44:53;102932.75;;;15.54;100.00
47054;BME280;32811;52.382;5.270;2023-05-27T07:47:20;102918.38;;;15.75;100.00
47054;BME280;32811;52.382;5.270;2023-05-27T07:49:49;102925.03;;;16.14;100.00
47054;BME280;32811;52.382;5.270;2023-05-27T07:52:16;102922.38;;;15.57;100.00
47054;BME280;32811;52.382;5.270;2023-05-27T07:54:42;102915.72;;;16.31;100.00
47054;BME280;32811;52.382;5.270;2023-05-27T07:57:21;102912.56;;;16.54;100.00
47054;BME280;32811;52.382;5.270;2023-05-27T07:59:47;102911.19;;;16.80;100.00
47054;BME280;32811;52.382;5.270;2023-05-27T08:02:14;102911.16;;;16.15;100.00
47054;BME280;32811;52.382;5.270;2023-05-27T08:04:41;102898.34;;;16.30;100.00
47054;BME280;32811;52.382;5.270;2023-05-27T08:07:10;102902.06;;;16.48;100.00
47054;BME280;32811;52.382;5.270;2023-05-27T08:09:36;102896.75;;;17.10;100.00
47054;BME280;32811;52.382;5.270;2023-05-27T08:12:03;102894.16;;;17.16;98.25
47054;BME280;32811;52.382;5.270;2023-05-27T08:14:32;102895.72;;;16.97;100.00
47054;BME280;32811;52.382;5.270;2023-05-27T08:16:59;102887.50;;;16.67;100.00
47054;BME280;32811;52.382;5.270;2023-05-27T08:19:27;102886.34;;;17.16;100.00
47054;BME280;32811;52.382;5.270;2023-05-27T08:21:53;102883.84;;;17.29;100.00
47054;BME280;32811;52.382;5.270;2023-05-27T08:24:22;102872.81;;;17.60;100.00
47054;BME280;32811;52.382;5.270;2023-05-27T08:26:49;102869.59;;;17.97;98.60
47054;BME280;32811;52.382;5.270;2023-05-27T08:29:16;102866.84;;;17.80;93.48
47054;BME280;32811;52.382;5.270;2023-05-27T08:31:43;102872.09;;;17.81;95.55
47054;BME280;32811;52.382;5.270;2023-05-27T08:34:10;102865.22;;;17.93;94.37
47054;BME280;32811;52.382;5.270;2023-05-27T08:36:37;102859.00;;;17.78;95.08
47054;BME280;32811;52.382;5.270;2023-05-27T08:39:03;102862.78;;;18.20;98.08
47054;BME280;32811;52.382;5.270;2023-05-27T08:41:31;102850.47;;;18.01;89.77
47054;BME280;32811;52.382;5.270;2023-05-27T08:43:57;102855.72;;;18.07;92.50
47054;BME280;32811;52.382;5.270;2023-05-27T08:46:48;102848.00;;;18.30;91.50
47054;BME280;32811;52.382;5.270;2023-05-27T08:49:16;102841.00;;;18.20;92.66
47054;BME280;32811;52.382;5.270;2023-05-27T08:51:44;102851.63;;;18.60;85.67
47054;BME280;32811;52.382;5.270;2023-05-27T08:54:12;102835.78;;;18.31;84.11
47054;BME280;32811;52.382;5.270;2023-05-27T08:56:39;102837.47;;;18.19;84.56
47054;BME280;32811;52.382;5.270;2023-05-27T08:59:07;102840.84;;;17.94;85.20
47054;BME280;32811;52.382;5.270;2023-05-27T09:01:34;102830.50;;;18.14;84.59
47054;BME280;32811;52.382;5.270;2023-05-27T09:04:01;102827.13;;;18.45;86.49
47054;BME280;32811;52.382;5.270;2023-05-27T09:06:28;102819.28;;;18.33;87.76
47054;BME280;32811;52.382;5.270;2023-05-27T09:08:55;102820.97;;;18.30;88.77
47054;BME280;32811;52.382;5.270;2023-05-27T09:11:25;102823.72;;;18.66;89.96
47054;BME280;32811;52.382;5.270;2023-05-27T09:13:55;102823.78;;;18.88;86.33
47054;BME280;32811;52.382;5.270;2023-05-27T09:16:24;102817.72;;;19.09;85.60
47054;BME280;32811;52.382;5.270;2023-05-27T09:18:51;102811.59;;;19.10;82.04
47054;BME280;32811;52.382;5.270;2023-05-27T09:21:18;102814.19;;;18.82;81.61
47054;BME280;32811;52.382;5.270;2023-05-27T09:23:44;102815.88;;;18.73;81.74
47054;BME280;32811;52.382;5.270;2023-05-27T09:26:12;102804.63;;;18.89;82.77
47054;BME280;32811;52.382;5.270;2023-05-27T09:28:39;102807.16;;;18.75;82.88
47054;BME280;32811;52.382;5.270;2023-05-27T09:31:08;102810.59;;;18.51;85.57
47054;BME280;32811;52.382;5.270;2023-05-27T09:33:39;102805.47;;;18.93;83.13
47054;BME280;32811;52.382;5.270;2023-05-27T09:36:07;102807.25;;;19.09;81.04
47054;BME280;32811;52.382;5.270;2023-05-27T09:38:36;102797.63;;;18.99;83.31
47054;BME280;32811;52.382;5.270;2023-05-27T09:41:03;102797.63;;;19.39;82.97
47054;BME280;32811;52.382;5.270;2023-05-27T09:43:30;102801.97;;;18.95;79.82
47054;BME280;32811;52.382;5.270;2023-05-27T09:46:02;102802.00;;;18.84;79.72
47054;BME280;32811;52.382;5.270;2023-05-27T09:48:30;102800.25;;;18.91;78.25
47054;BME280;32811;52.382;5.270;2023-05-27T09:51:00;102801.03;;;18.64;80.22
47054;BME280;32811;52.382;5.270;2023-05-27T09:53:27;102791.47;;;18.77;80.78
47054;BME280;32811;52.382;5.270;2023-05-27T09:55:55;102789.78;;;19.19;81.12
47054;BME280;32811;52.382;5.270;2023-05-27T09:58:23;102786.25;;;19.40;79.01
47054;BME280;32811;52.382;5.270;2023-05-27T10:00:50;102784.53;;;19.43;79.49
47054;BME280;32811;52.382;5.270;2023-05-27T10:03:22;102781.91;;;19.26;78.83
47054;BME280;32811;52.382;5.270;2023-05-27T10:05:50;102782.78;;;19.38;77.13
47054;BME280;32811;52.382;5.270;2023-05-27T10:08:20;102771.38;;;19.66;82.25
47054;BME280;32811;52.382;5.270;2023-05-27T10:10:52;102767.94;;;19.20;77.11
47054;BME280;32811;52.382;5.270;2023-05-27T10:13:20;102761.78;;;19.59;79.48
47054;BME280;32811;52.382;5.270;2023-05-27T10:15:51;102765.28;;;19.60;80.17
47054;BME280;32811;52.382;5.270;2023-05-27T10:18:29;102753.97;;;19.52;77.49
47054;BME280;32811;52.382;5.270;2023-05-27T10:20:57;102753.94;;;19.59;76.73
47054;BME280;32811;52.382;5.270;2023-05-27T10:23:26;102747.78;;;19.76;76.65
47054;BME280;32811;52.382;5.270;2023-05-27T10:26:11;102753.88;;;19.90;77.18
47054;BME280;32811;52.382;5.270;2023-05-27T10:28:39;102753.91;;;19.81;74.36
47054;BME280;32811;52.382;5.270;2023-05-27T10:33:43;102746.91;;;19.80;77.09
47054;BME280;32811;52.382;5.270;2023-05-27T10:36:15;102734.66;;;19.86;76.69
47054;BME280;32811;52.382;5.270;2023-05-27T10:38:57;102736.47;;;19.70;72.17
47054;BME280;32811;52.382;5.270;2023-05-27T10:41:24;102732.09;;;19.71;75.20
47054;BME280;32811;52.382;5.270;2023-05-27T10:43:58;102730.25;;;19.95;76.39
47054;BME280;32811;52.382;5.270;2023-05-27T10:46:26;102716.31;;;19.80;73.91
47054;BME280;32811;52.382;5.270;2023-05-27T10:48:53;102725.84;;;20.06;75.99
47054;BME280;32811;52.382;5.270;2023-05-27T10:51:31;102721.56;;;19.86;72.34
47054;BME280;32811;52.382;5.270;2023-05-27T10:53:59;102718.16;;;19.58;72.08
47054;BME280;32811;52.382;5.270;2023-05-27T10:56:49;102708.50;;;19.76;71.64
47054;BME280;32811;52.382;5.270;2023-05-27T10:59:21;102705.00;;;19.67;74.29
47054;BME280;32811;52.382;5.270;2023-05-27T11:01:52;102702.41;;;19.61;73.08
47054;BME280;32811;52.382;5.270;2023-05-27T11:04:20;102705.88;;;19.62;70.70
47054;BME280;32811;52.382;5.270;2023-05-27T11:07:00;102704.00;;;20.05;73.30
47054;BME280;32811;52.382;5.270;2023-05-27T11:09:31;102690.09;;;19.93;69.63
47054;BME280;32811;52.382;5.270;2023-05-27T11:12:01;102683.97;;;19.90;70.40
47054;BME280;32811;52.382;5.270;2023-05-27T11:14:31;102683.00;;;20.07;69.37
47054;BME280;32811;52.382;5.270;2023-05-27T11:16:58;102682.03;;;20.23;70.58
47054;BME280;32811;52.382;5.270;2023-05-27T11:19:25;102676.91;;;20.06;73.40
47054;BME280;32811;52.382;5.270;2023-05-27T11:21:52;102669.84;;;20.21;71.21
47054;BME280;32811;52.382;5.270;2023-05-27T11:24:19;102673.38;;;20.09;78.33
47054;BME280;32811;52.382;5.270;2023-05-27T11:26:47;102668.28;;;19.80;82.79
47054;BME280;32811;52.382;5.270;2023-05-27T11:29:14;102663.00;;;19.89;81.86
47054;BME280;32811;52.382;5.270;2023-05-27T11:31:45;102650.75;;;19.91;84.66
47054;BME280;32811;52.382;5.270;2023-05-27T11:34:13;102662.97;;;19.95;85.05
47054;BME280;32811;52.382;5.270;2023-05-27T11:36:41;102649.16;;;19.72;85.30
47054;BME280;32811;52.382;5.270;2023-05-27T11:39:14;102651.72;;;19.78;84.58
47054;BME280;32811;52.382;5.270;2023-05-27T11:41:49;102647.28;;;19.92;82.57
47054;BME280;32811;52.382;5.270;2023-05-27T11:44:21;102636.00;;;19.81;85.35
47054;BME280;32811;52.382;5.270;2023-05-27T11:46:52;102635.03;;;19.91;87.55
47054;BME280;32811;52.382;5.270;2023-05-27T11:49:24;102637.78;;;19.62;83.43
47054;BME280;32811;52.382;5.270;2023-05-27T11:51:50;102638.63;;;19.75;82.97
47054;BME280;32811;52.382;5.270;2023-05-27T11:54:22;102628.19;;;19.67;85.27
47054;BME280;32811;52.382;5.270;2023-05-27T11:56:50;102629.78;;;19.91;87.27
47054;BME280;32811;52.382;5.270;2023-05-27T11:59:18;102619.38;;;19.85;83.05
47054;BME280;32811;52.382;5.270;2023-05-27T12:01:45;102622.06;;;19.62;86.93
47054;BME280;32811;52.382;5.270;2023-05-27T12:04:12;102616.88;;;19.51;86.21
47054;BME280;32811;52.382;5.270;2023-05-27T12:06:39;102602.88;;;19.63;86.03
47054;BME280;32811;52.382;5.270;2023-05-27T12:09:09;102608.94;;;19.66;89.55
47054;BME280;32811;52.382;5.270;2023-05-27T12:11:37;102605.59;;;19.37;92.37
47054;BME280;32811;52.382;5.270;2023-05-27T12:14:05;102607.38;;;19.28;92.12
47054;BME280;32811;52.382;5.270;2023-05-27T12:16:32;102598.66;;;19.28;93.27
47054;BME280;32811;52.382;5.270;2023-05-27T12:18:59;102596.88;;;19.36;97.78
47054;BME280;32811;52.382;5.270;2023-05-27T12:21:25;102594.22;;;19.45;94.41
47054;BME280;32811;52.382;5.270;2023-05-27T12:23:52;102589.84;;;19.47;94.59
47054;BME280;32811;52.382;5.270;2023-05-27T12:26:19;102584.53;;;19.61;94.26
47054;BME280;32811;52.382;5.270;2023-05-27T12:28:46;102581.88;;;19.74;93.80
47054;BME280;32811;52.382;5.270;2023-05-27T12:31:13;102585.44;;;19.54;93.47
47054;BME280;32811;52.382;5.270;2023-05-27T12:33:40;102583.66;;;19.72;93.63
47054;BME280;32811;52.382;5.270;2023-05-27T12:36:06;102584.56;;;19.55;93.47
47054;BME280;32811;52.382;5.270;2023-05-27T12:38:33;102573.16;;;19.62;93.73
47054;BME280;32811;52.382;5.270;2023-05-27T12:41:00;102574.16;;;19.40;97.70
47054;BME280;32811;52.382;5.270;2023-05-27T12:43:27;102572.31;;;19.59;95.07
47054;BME280;32811;52.382;5.270;2023-05-27T12:45:54;102564.44;;;19.63;93.53
47054;BME280;32811;52.382;5.270;2023-05-27T12:48:21;102572.25;;;19.66;94.17
47054;BME280;32811;52.382;5.270;2023-05-27T12:50:48;102567.91;;;19.70;90.45
47054;BME280;32811;52.382;5.270;2023-05-27T12:53:14;102572.25;;;19.76;92.92
47054;BME280;32811;52.382;5.270;2023-05-27T12:55:42;102568.00;;;19.52;92.78
47054;BME280;32811;52.382;5.270;2023-05-27T12:58:10;102567.25;;;19.17;97.38
47054;BME280;32811;52.382;5.270;2023-05-27T13:00:37;102562.72;;;19.58;97.39
47054;BME280;32811;52.382;5.270;2023-05-27T13:03:04;102555.72;;;19.61;96.38
47054;BME280;32811;52.382;5.270;2023-05-27T13:05:31;102561.75;;;19.76;96.50